createdAt,value
2018-01-15T00:02:22.285Z,102172.16
2018-01-15T00:04:49.907Z,102168.41
2018-01-15T00:07:17.525Z,102176.91
2018-01-15T00:09:45.147Z,102175.02
2018-01-15T00:12:13.028Z,102168.81
2018-01-15T00:14:40.656Z,102172.53
2018-01-15T00:17:08.279Z,102162.48
2018-01-15T00:19:35.875Z,102159.43
2018-01-15T00:22:03.573Z,102154.55
2018-01-15T00:24:31.444Z,102156.50
2018-01-15T00:26:59.070Z,102153.59
2018-01-15T00:29:26.680Z,102148.05
2018-01-15T00:31:54.280Z,102144.78
2018-01-15T00:34:21.927Z,102135.48
2018-01-15T00:36:49.528Z,102142.48
2018-01-15T00:39:17.132Z,102134.33
2018-01-15T00:41:44.764Z,102133.09
2018-01-15T00:44:12.355Z,102142.31
2018-01-15T00:46:39.993Z,102136.15
2018-01-15T00:49:07.610Z,102139.95
2018-01-15T00:51:35.216Z,102138.78
2018-01-15T00:54:02.832Z,102123.75
2018-01-15T00:56:30.754Z,102121.06
2018-01-15T00:58:58.624Z,102126.81
2018-01-15T01:01:26.244Z,102114.41
2018-01-15T01:03:54.094Z,102106.38
2018-01-15T01:06:21.729Z,102102.75
2018-01-15T01:08:49.320Z,102106.74
2018-01-15T01:11:17.247Z,102101.79
2018-01-15T01:13:44.838Z,102098.48
2018-01-15T01:16:12.436Z,102097.47
2018-01-15T01:18:40.061Z,102097.07
2018-01-15T01:21:08.008Z,102088.39
2018-01-15T01:23:35.645Z,102085.25
2018-01-15T01:26:03.250Z,102077.20
2018-01-15T01:28:30.838Z,102079.72
2018-01-15T01:30:58.453Z,102078.02
2018-01-15T01:33:26.056Z,102080.31
2018-01-15T01:35:53.704Z,102072.58
2018-01-15T01:38:21.352Z,102072.16
2018-01-15T01:40:48.948Z,102058.03
2018-01-15T01:43:16.874Z,102055.88
2018-01-15T01:45:44.475Z,102043.87
2018-01-15T01:48:12.147Z,102043.19
2018-01-15T01:50:39.742Z,102038.08
2018-01-15T01:53:07.365Z,102030.48
2018-01-15T01:55:34.983Z,102040.24
2018-01-15T01:58:02.851Z,102028.23
2018-01-15T02:00:30.493Z,102026.63
2018-01-15T02:02:58.093Z,102012.89
2018-01-15T02:05:25.726Z,102012.83
2018-01-15T02:07:53.603Z,102012.05
2018-01-15T02:10:21.242Z,102006.24
2018-01-15T02:12:49.238Z,102003.04
2018-01-15T02:15:16.822Z,101997.15
2018-01-15T02:17:44.435Z,101992.57
2018-01-15T02:20:12.059Z,101984.84
2018-01-15T02:22:39.987Z,101993.75
2018-01-15T02:25:07.638Z,101992.11
2018-01-15T02:27:35.231Z,101988.52
2018-01-15T02:30:02.870Z,101978.42
2018-01-15T02:32:30.488Z,101972.56
2018-01-15T02:34:58.082Z,101964.62
2018-01-15T02:37:25.723Z,101966.45
2018-01-15T02:39:53.331Z,101965.77
2018-01-15T02:42:20.948Z,101962.08
2018-01-15T02:44:48.682Z,101957.12
2018-01-15T02:47:16.273Z,101955.44
2018-01-15T02:49:43.909Z,101954.24
2018-01-15T02:52:11.511Z,101950.03
2018-01-15T02:54:39.787Z,101940.28
2018-01-15T02:57:07.401Z,101941.24
2018-01-15T02:59:34.982Z,101943.47
2018-01-15T03:02:02.612Z,101936.07
2018-01-15T03:04:30.207Z,101925.37
2018-01-15T03:06:58.136Z,101922.85
2018-01-15T03:09:26.099Z,101927.81
2018-01-15T03:11:53.968Z,101912.16
2018-01-15T03:14:21.590Z,101912.19
2018-01-15T03:16:49.173Z,101919.74
2018-01-15T03:19:16.810Z,101911.73
2018-01-15T03:21:44.428Z,101906.31
2018-01-15T03:24:12.035Z,101898.55
2018-01-15T03:26:39.726Z,101892.99
2018-01-15T03:29:07.354Z,101886.05
2018-01-15T03:31:34.951Z,101885.80
2018-01-15T03:34:02.602Z,101887.33
2018-01-15T03:36:30.195Z,101886.38
2018-01-15T03:38:57.831Z,101877.45
2018-01-15T03:41:25.460Z,101877.87
2018-01-15T03:43:53.051Z,101868.55
2018-01-15T03:46:20.728Z,101870.39
2018-01-15T03:48:48.341Z,101872.80
2018-01-15T03:51:15.998Z,101867.70
2018-01-15T03:53:43.587Z,101867.00
2018-01-15T03:56:11.172Z,101864.88
2018-01-15T03:58:38.796Z,101855.70
2018-01-15T04:01:06.388Z,101854.67
2018-01-15T04:03:34.018Z,101847.27
2018-01-15T04:06:01.610Z,101846.63
2018-01-15T04:08:29.203Z,101845.50
2018-01-15T04:10:57.063Z,101844.22
2018-01-15T04:13:24.688Z,101842.31
2018-01-15T04:15:52.363Z,101833.60
2018-01-15T04:18:20.244Z,101830.41
2018-01-15T04:20:47.836Z,101822.84
2018-01-15T04:23:15.497Z,101832.54
2018-01-15T04:25:43.360Z,101821.98
2018-01-15T04:28:11.021Z,101817.70
2018-01-15T04:30:38.643Z,101809.90
2018-01-15T04:33:06.247Z,101803.76
2018-01-15T04:35:33.873Z,101798.44
2018-01-15T04:38:01.468Z,101792.55
2018-01-15T04:40:29.112Z,101793.56
2018-01-15T04:42:56.708Z,101788.25
2018-01-15T04:45:24.305Z,101785.06
2018-01-15T04:47:52.013Z,101771.91
2018-01-15T04:50:19.679Z,101775.00
2018-01-15T04:52:47.315Z,101764.95
2018-01-15T04:55:14.912Z,101766.69
2018-01-15T04:57:42.598Z,101754.97
2018-01-15T05:00:10.214Z,101758.56
2018-01-15T05:02:37.794Z,101752.92
2018-01-15T05:05:05.438Z,101759.73
2018-01-15T05:07:33.036Z,101756.50
2018-01-15T05:10:00.636Z,101757.81
2018-01-15T05:12:28.581Z,101749.72
2018-01-15T05:14:56.179Z,101745.18
2018-01-15T05:17:23.895Z,101741.67
2018-01-15T05:19:51.486Z,101737.63
2018-01-15T05:22:19.172Z,101741.52
2018-01-15T05:24:46.807Z,101733.84
2018-01-15T05:27:14.432Z,101723.02
2018-01-15T05:29:42.037Z,101716.50
2018-01-15T05:32:09.684Z,101712.34
2018-01-15T05:34:37.302Z,101714.47
2018-01-15T05:37:04.910Z,101712.02
2018-01-15T05:39:32.546Z,101708.52
2018-01-15T05:42:00.153Z,101717.19
2018-01-15T05:44:28.694Z,101711.33
2018-01-15T05:46:56.319Z,101709.83
2018-01-15T05:49:24.204Z,101706.47
2018-01-15T05:51:51.806Z,101700.42
2018-01-15T05:54:20.041Z,101705.89
2018-01-15T05:56:47.908Z,101697.30
2018-01-15T05:59:15.513Z,101698.02
2018-01-15T06:01:43.124Z,101693.87
2018-01-15T06:04:10.962Z,101686.23
2018-01-15T06:06:38.580Z,101691.09
2018-01-15T06:09:06.427Z,101690.44
2018-01-15T06:11:34.084Z,101685.23
2018-01-15T06:14:01.679Z,101680.64
2018-01-15T06:16:29.406Z,101673.70
2018-01-15T06:18:57.809Z,101682.61
2018-01-15T06:21:25.674Z,101677.79
2018-01-15T06:23:53.319Z,101669.15
2018-01-15T06:26:20.997Z,101664.18
2018-01-15T06:28:48.615Z,101663.98
2018-01-15T06:31:16.260Z,101664.68
2018-01-15T06:33:43.882Z,101660.94
2018-01-15T06:36:11.858Z,101657.70
2018-01-15T06:38:39.451Z,101660.52
2018-01-15T06:41:07.073Z,101662.87
2018-01-15T06:43:34.712Z,101661.13
2018-01-15T06:46:02.312Z,101659.20
2018-01-15T06:48:30.057Z,101655.34
2018-01-15T06:50:57.660Z,101650.10
2018-01-15T06:53:25.291Z,101645.67
2018-01-15T06:55:53.255Z,101644.13
2018-01-15T06:58:20.880Z,101638.61
2018-01-15T07:00:48.525Z,101634.95
2018-01-15T07:03:16.453Z,101640.23
2018-01-15T07:05:44.092Z,101633.25
2018-01-15T07:08:11.703Z,101633.30
2018-01-15T07:10:39.654Z,101621.03
2018-01-15T07:13:07.635Z,101622.12
2018-01-15T07:15:35.276Z,101613.41
2018-01-15T07:18:02.917Z,101617.48
2018-01-15T07:20:30.548Z,101609.09
2018-01-15T07:22:58.178Z,101612.41
2018-01-15T07:25:25.835Z,101609.31
2018-01-15T07:27:53.447Z,101604.80
2018-01-15T07:30:21.113Z,101606.19
2018-01-15T07:32:48.744Z,101611.05
2018-01-15T07:35:16.377Z,101608.97
2018-01-15T07:37:44.034Z,101610.66
2018-01-15T07:40:11.643Z,101605.88
2018-01-15T07:42:39.271Z,101603.60
2018-01-15T07:45:07.477Z,101606.42
2018-01-15T07:47:35.156Z,101600.88
2018-01-15T07:50:02.876Z,101604.57
2018-01-15T07:52:30.500Z,101598.83
2018-01-15T07:54:58.123Z,101586.77
2018-01-15T07:57:25.805Z,101579.60
2018-01-15T07:59:53.403Z,101571.52
2018-01-15T08:02:21.952Z,101569.81
2018-01-15T08:04:49.612Z,101570.73
2018-01-15T08:07:17.499Z,101571.74
2018-01-15T08:09:45.133Z,101566.80
2018-01-15T08:12:12.731Z,101558.06
2018-01-15T08:14:41.176Z,101563.58
2018-01-15T08:17:11.043Z,101558.83
2018-01-15T08:19:38.636Z,101551.63
2018-01-15T08:22:07.307Z,101552.55
2018-01-15T08:24:35.175Z,101549.55
2018-01-15T08:27:03.151Z,101545.03
2018-01-15T08:29:31.116Z,101538.05
2018-01-15T08:31:59.209Z,101529.38
2018-01-15T08:34:27.160Z,101517.73
2018-01-15T08:36:56.772Z,101515.84
2018-01-15T08:39:24.430Z,101509.98
2018-01-15T08:41:52.583Z,101508.66
2018-01-15T08:44:20.482Z,101503.45
2018-01-15T08:46:48.141Z,101506.69
2018-01-15T08:49:15.728Z,101500.08
2018-01-15T08:51:43.391Z,101497.41
2018-01-15T08:54:10.993Z,101492.19
2018-01-15T08:56:38.608Z,101494.63
2018-01-15T08:59:06.553Z,101492.75
2018-01-15T09:01:34.155Z,101487.80
2018-01-15T09:04:01.790Z,101485.03
2018-01-15T09:06:29.381Z,101489.12
2018-01-15T09:08:57.428Z,101480.47
2018-01-15T09:11:25.388Z,101471.42
2018-01-15T09:57:04.891Z,101409.49
2018-01-15T09:59:32.464Z,101403.22
2018-01-15T10:02:00.023Z,101401.28
2018-01-15T10:04:27.930Z,101382.44
2018-01-15T10:06:55.492Z,101371.52
2018-01-15T10:09:23.096Z,101374.90
2018-01-15T10:11:50.678Z,101358.87
2018-01-15T10:14:18.229Z,101350.39
2018-01-15T10:16:45.816Z,101343.41
2018-01-15T10:19:13.360Z,101338.89
2018-01-15T10:21:41.256Z,101335.97
2018-01-15T10:24:09.123Z,101336.86
2018-01-15T10:26:36.680Z,101325.27
2018-01-15T10:29:04.329Z,101319.87
2018-01-15T10:31:31.942Z,101316.45
2018-01-15T10:33:59.508Z,101306.09
2018-01-15T10:36:27.109Z,101297.87
2018-01-15T10:38:54.667Z,101298.91
2018-01-15T10:41:22.249Z,101292.57
2018-01-15T10:43:49.902Z,101282.88
2018-01-15T10:46:18.385Z,101279.67
2018-01-15T10:48:45.932Z,101280.94
2018-01-15T10:51:13.512Z,101273.21
2018-01-15T10:53:41.065Z,101257.84
2018-01-15T10:56:08.709Z,101245.81
2018-01-15T10:58:36.323Z,101239.28
2018-01-15T11:01:09.713Z,101229.11
2018-01-15T11:03:37.262Z,101219.81
2018-01-15T11:06:04.835Z,101216.55
2018-01-15T11:08:32.413Z,101209.23
2018-01-15T11:10:59.992Z,101204.51
2018-01-15T11:13:27.563Z,101202.33
2018-01-15T11:15:55.177Z,101196.31
2018-01-15T11:18:22.805Z,101187.89
2018-01-15T11:20:50.355Z,101190.76
2018-01-15T11:23:17.913Z,101179.59
2018-01-15T11:25:45.508Z,101177.91
2018-01-15T11:28:13.086Z,101180.39
2018-01-15T11:30:40.729Z,101164.52
2018-01-15T11:33:08.317Z,101160.21
2018-01-15T11:35:35.891Z,101150.03
2018-01-15T11:38:03.635Z,101144.18
2018-01-15T11:40:31.222Z,101136.58
2018-01-15T11:42:58.814Z,101122.61
2018-01-15T11:45:26.709Z,101116.03
2018-01-15T11:47:54.304Z,101126.51
2018-01-15T11:50:21.891Z,101116.75
2018-01-15T11:52:49.803Z,101114.25
2018-01-15T11:55:17.345Z,101104.89
2018-01-15T11:57:44.957Z,101087.27
2018-01-15T12:00:12.540Z,101089.77
2018-01-15T12:02:40.493Z,101087.82
2018-01-15T12:05:08.140Z,101089.43
2018-01-15T12:07:35.752Z,101071.27
2018-01-15T12:10:03.330Z,101058.50
2018-01-15T12:12:31.223Z,101051.97
2018-01-15T12:14:58.781Z,101051.79
2018-01-15T12:17:26.385Z,101042.18
2018-01-15T12:19:54.415Z,101041.10
2018-01-15T12:22:22.381Z,101020.34
2018-01-15T12:24:49.983Z,101009.31
2018-01-15T12:27:17.603Z,101014.88
2018-01-15T12:29:45.173Z,101008.05
2018-01-15T12:32:12.817Z,101005.59
2018-01-15T12:34:40.369Z,101001.25
2018-01-15T12:37:07.985Z,100999.22
2018-01-15T12:39:35.923Z,100979.13
2018-01-15T12:42:03.598Z,100984.11
2018-01-15T12:44:31.204Z,100972.47
2018-01-15T12:46:58.795Z,100967.97
2018-01-15T12:49:26.671Z,100957.41
2018-01-15T12:51:54.289Z,100954.55
2018-01-15T12:54:21.904Z,100959.20
2018-01-15T12:56:49.497Z,100947.03
2018-01-15T12:59:17.062Z,100938.28
2018-01-15T13:01:44.993Z,100931.69
2018-01-15T13:04:12.563Z,100914.44
2018-01-15T13:06:51.965Z,100903.58
2018-01-15T13:09:19.555Z,100899.98
2018-01-15T13:11:47.126Z,100906.71
2018-01-15T13:14:14.701Z,100902.81
2018-01-15T13:16:42.540Z,100908.31
2018-01-15T13:19:10.112Z,100907.17
2018-01-15T13:21:37.679Z,100905.97
2018-01-15T13:24:05.217Z,100904.22
2018-01-15T13:26:32.816Z,100901.23
2018-01-15T13:29:00.420Z,100897.22
2018-01-15T13:31:28.036Z,100885.32
2018-01-15T13:33:55.606Z,100883.25
2018-01-15T13:36:23.215Z,100877.19
2018-01-15T13:38:50.811Z,100872.08
2018-01-15T13:41:18.396Z,100865.72
2018-01-15T13:43:45.995Z,100866.69
2018-01-15T13:46:13.683Z,100852.98
2018-01-15T13:48:41.285Z,100849.70
2018-01-15T13:51:08.860Z,100845.02
2018-01-15T13:53:36.767Z,100844.65
2018-01-15T13:56:04.397Z,100836.25
2018-01-15T13:58:32.320Z,100833.03
2018-01-15T14:00:59.927Z,100827.44
2018-01-15T14:03:27.506Z,100821.09
2018-01-15T14:05:55.120Z,100815.98
2018-01-15T14:08:22.758Z,100814.41
2018-01-15T14:10:50.325Z,100820.05
2018-01-15T14:13:17.936Z,100818.09
2018-01-15T14:15:45.607Z,100804.34
2018-01-15T14:18:13.257Z,100804.28
2018-01-15T14:20:40.852Z,100795.95
2018-01-15T14:23:08.452Z,100786.52
2018-01-15T14:25:36.039Z,100770.34
2018-01-15T14:28:03.659Z,100777.53
2018-01-15T14:30:31.339Z,100765.19
2018-01-15T14:32:58.939Z,100754.45
2018-01-15T14:35:26.538Z,100753.08
2018-01-15T14:37:54.503Z,100753.38
2018-01-15T14:40:22.083Z,100741.86
2018-01-15T14:42:49.668Z,100741.32
2018-01-15T14:45:17.230Z,100732.86
2018-01-15T14:47:45.050Z,100729.56
2018-01-15T14:50:12.608Z,100731.36
2018-01-15T14:52:40.182Z,100713.08
2018-01-15T14:55:07.795Z,100704.23
2018-01-15T14:57:35.635Z,100715.97
2018-01-15T15:00:03.303Z,100698.39
2018-01-15T15:02:30.924Z,100691.82
2018-01-15T15:04:58.504Z,100683.12
2018-01-15T15:07:26.459Z,100681.56
2018-01-15T15:09:54.268Z,100670.59
2018-01-15T15:12:21.892Z,100659.27
2018-01-15T15:14:49.514Z,100655.02
2018-01-15T15:17:17.546Z,100644.17
2018-01-15T15:19:45.153Z,100641.13
2018-01-15T15:22:12.735Z,100648.91
2018-01-15T15:24:40.410Z,100641.97
2018-01-15T15:27:08.033Z,100633.03
2018-01-15T15:29:35.755Z,100614.89
2018-01-15T15:32:03.443Z,100612.31
2018-01-15T15:34:31.079Z,100608.36
2018-01-15T15:36:58.830Z,100595.95
2018-01-15T15:39:26.787Z,100596.49
2018-01-15T15:41:54.337Z,100585.37
2018-01-15T15:44:21.926Z,100589.73
2018-01-15T15:46:49.492Z,100570.99
2018-01-15T15:49:17.065Z,100559.61
2018-01-15T15:51:44.906Z,100556.42
2018-01-15T15:54:12.500Z,100549.23
2018-01-15T15:56:40.082Z,100545.34
2018-01-15T15:59:07.675Z,100545.19
2018-01-15T16:01:35.259Z,100538.28
2018-01-15T16:04:03.071Z,100535.47
2018-01-15T16:06:30.877Z,100531.94
2018-01-15T16:08:58.491Z,100516.55
2018-01-15T16:11:26.077Z,100511.53
2018-01-15T16:13:53.970Z,100506.72
2018-01-15T16:16:21.525Z,100506.06
2018-01-15T16:18:49.102Z,100486.15
2018-01-15T16:21:16.926Z,100477.28
2018-01-15T16:23:44.569Z,100470.46
2018-01-15T16:26:12.171Z,100468.66
2018-01-15T16:28:39.730Z,100474.28
2018-01-15T16:31:07.415Z,100468.80
2018-01-15T16:33:35.017Z,100463.69
2018-01-15T16:36:02.617Z,100457.90
2018-01-15T16:38:30.500Z,100447.23
2018-01-15T16:40:58.069Z,100456.88
2018-01-15T16:43:25.657Z,100451.13
2018-01-15T16:45:53.302Z,100439.94
2018-01-15T16:48:20.934Z,100434.25
2018-01-15T16:50:48.536Z,100430.53
2018-01-15T16:53:16.102Z,100426.64
2018-01-15T16:55:43.702Z,100422.56
2018-01-15T16:58:11.281Z,100415.08
2018-01-15T17:00:38.925Z,100410.36
2018-01-15T17:03:06.473Z,100409.11
2018-01-15T17:05:34.329Z,100409.68
2018-01-15T17:08:01.976Z,100402.45
2018-01-15T17:10:29.584Z,100391.53
2018-01-15T17:12:57.139Z,100388.61
2018-01-15T17:15:24.704Z,100384.72
2018-01-15T17:17:52.265Z,100371.00
2018-01-15T17:20:19.878Z,100361.08
2018-01-15T17:22:47.446Z,100360.73
2018-01-15T17:25:15.085Z,100355.68
2018-01-15T17:27:42.660Z,100345.98
2018-01-15T17:30:10.314Z,100346.88
2018-01-15T17:32:38.222Z,100331.98
2018-01-15T17:35:06.145Z,100321.98
2018-01-15T17:37:33.809Z,100319.07
2018-01-15T17:40:01.400Z,100323.42
2018-01-15T17:42:29.060Z,100314.84
2018-01-15T17:44:56.648Z,100306.53
2018-01-15T17:47:24.273Z,100298.89
2018-01-15T17:49:51.871Z,100304.73
2018-01-15T17:52:19.564Z,100290.38
2018-01-15T17:54:47.155Z,100285.86
2018-01-15T17:57:14.701Z,100284.77
2018-01-15T17:59:42.318Z,100275.19
2018-01-15T18:02:09.945Z,100273.80
2018-01-15T18:04:37.784Z,100267.98
2018-01-15T18:07:05.347Z,100266.38
2018-01-15T18:09:32.939Z,100263.42
2018-01-15T18:12:00.503Z,100257.73
2018-01-15T18:14:28.100Z,100257.52
2018-01-15T18:16:55.719Z,100247.93
2018-01-15T18:19:23.377Z,100243.77
2018-01-15T18:21:51.045Z,100242.38
2018-01-15T18:24:18.635Z,100241.02
2018-01-15T18:26:46.592Z,100244.35
2018-01-15T18:29:14.235Z,100243.44
2018-01-15T18:31:41.898Z,100233.33
2018-01-15T18:34:09.490Z,100228.46
2018-01-15T18:36:37.420Z,100218.20
2018-01-15T18:39:05.230Z,100211.47
2018-01-15T18:41:33.164Z,100208.64
2018-01-15T18:44:00.818Z,100211.16
2018-01-15T18:46:28.785Z,100196.59
2018-01-15T18:48:56.453Z,100192.77
2018-01-15T18:51:24.107Z,100193.88
2018-01-15T18:53:51.844Z,100186.88
2018-01-15T18:56:19.700Z,100187.03
2018-01-15T18:58:47.285Z,100182.64
2018-01-15T19:01:14.896Z,100169.80
2018-01-15T19:03:42.480Z,100159.15
2018-01-15T19:06:10.100Z,100163.59
2018-01-15T19:08:37.691Z,100155.25
2018-01-15T19:11:05.336Z,100158.95
2018-01-15T19:13:32.927Z,100163.88
2018-01-15T19:16:00.845Z,100148.42
2018-01-15T19:18:28.533Z,100145.29
2018-01-15T19:20:56.117Z,100145.44
2018-01-15T19:23:23.731Z,100126.16
2018-01-15T19:25:51.393Z,100112.44
2018-01-15T19:28:18.971Z,100101.28
2018-01-15T19:30:46.658Z,100086.27
2018-01-15T19:33:14.240Z,100079.16
2018-01-15T19:35:44.830Z,100073.38
2018-01-15T19:41:16.871Z,100041.79
2018-01-15T19:44:03.053Z,100036.69
2018-01-15T19:46:36.283Z,100027.98
2018-01-15T19:49:09.685Z,100012.88
2018-01-15T19:51:42.986Z,100014.09
2018-01-15T19:54:16.159Z,100005.02
2018-01-15T19:56:49.533Z,100000.10
2018-01-15T19:59:22.802Z,99985.00
2018-01-15T20:01:56.010Z,99983.50
2018-01-15T20:04:29.106Z,99970.75
2018-01-15T20:07:02.394Z,99964.42
2018-01-15T20:09:35.956Z,99962.41
2018-01-15T20:12:03.615Z,99960.99
2018-01-15T20:14:31.238Z,99960.19
2018-01-15T20:16:58.839Z,99940.80
2018-01-15T20:19:26.469Z,99939.41
2018-01-15T20:21:54.045Z,99930.61
2018-01-15T20:24:21.654Z,99922.74
2018-01-15T20:26:49.252Z,99930.23
2018-01-15T20:29:16.792Z,99907.22
2018-01-15T20:31:44.410Z,99903.48
2018-01-15T20:34:11.973Z,99884.49
2018-01-15T20:36:39.551Z,99886.44
2018-01-15T20:39:07.234Z,99879.36
2018-01-15T20:41:34.775Z,99875.34
2018-01-15T20:44:02.376Z,99866.48
2018-01-15T20:46:29.919Z,99869.28
2018-01-15T20:48:57.545Z,99864.67
2018-01-15T20:51:25.101Z,99858.84
2018-01-15T20:53:52.994Z,99848.39
2018-01-15T20:56:20.812Z,99827.32
2018-01-15T20:58:48.792Z,99821.98
2018-01-15T21:01:16.465Z,99810.08
2018-01-15T21:03:44.057Z,99808.81
2018-01-15T21:06:12.027Z,99807.09
2018-01-15T21:08:39.592Z,99786.37
2018-01-15T21:11:07.164Z,99785.97
2018-01-15T21:13:34.807Z,99781.95
2018-01-15T21:16:02.414Z,99770.80
2018-01-15T21:18:29.950Z,99767.91
2018-01-15T21:20:57.565Z,99756.66
2018-01-15T21:23:25.193Z,99757.45
2018-01-15T21:25:52.796Z,99741.14
2018-01-15T21:28:20.375Z,99732.21
2018-01-15T21:30:47.918Z,99730.20
2018-01-15T21:33:15.517Z,99719.09
2018-01-15T21:35:43.086Z,99704.75
2018-01-15T21:38:10.630Z,99694.22
2018-01-15T21:40:38.205Z,99691.31
2018-01-15T21:43:05.810Z,99685.56
2018-01-15T21:45:33.419Z,99678.49
2018-01-15T21:48:01.003Z,99669.41
2018-01-15T21:50:28.550Z,99664.56
2018-01-15T21:52:56.139Z,99656.44
2018-01-15T21:55:23.684Z,99662.36
2018-01-15T21:57:51.232Z,99641.55
2018-01-15T22:00:18.820Z,99644.47
2018-01-15T22:02:46.655Z,99644.91
2018-01-15T22:05:14.217Z,99636.70
2018-01-15T22:07:41.774Z,99637.18
2018-01-15T22:10:09.357Z,99646.00
2018-01-15T22:12:36.971Z,99636.70
2018-01-15T22:15:04.802Z,99635.39
2018-01-15T22:17:32.390Z,99623.14
2018-01-15T22:19:59.937Z,99617.72
2018-01-15T22:22:27.545Z,99609.59
2018-01-15T22:24:55.659Z,99609.33
2018-01-15T22:27:23.208Z,99585.00
2018-01-15T22:29:50.880Z,99591.05
2018-01-15T22:32:18.862Z,99577.39
2018-01-15T22:34:46.805Z,99569.42
2018-01-15T22:37:15.626Z,99569.78
2018-01-15T22:39:43.277Z,99562.86
2018-01-15T22:42:10.852Z,99548.51
2018-01-15T22:44:38.473Z,99547.73
2018-01-15T22:47:06.374Z,99535.55
2018-01-15T22:49:34.478Z,99529.88
2018-01-15T22:52:02.313Z,99506.42
2018-01-15T22:54:29.965Z,99500.14
2018-01-15T22:56:57.549Z,99496.09
2018-01-15T22:59:25.124Z,99482.36
2018-01-15T23:01:52.675Z,99493.45
2018-01-15T23:04:20.529Z,99467.31
2018-01-15T23:06:48.129Z,99475.63
2018-01-15T23:09:15.703Z,99458.42
2018-01-15T23:11:43.287Z,99455.50
2018-01-15T23:14:10.860Z,99446.21
2018-01-15T23:16:38.455Z,99449.75
2018-01-15T23:19:06.043Z,99439.70
2018-01-15T23:21:33.620Z,99434.70
2018-01-15T23:24:01.221Z,99422.11
2018-01-15T23:26:28.788Z,99416.20
2018-01-15T23:28:56.374Z,99415.23
2018-01-15T23:31:23.949Z,99407.48
2018-01-15T23:33:51.505Z,99400.48
2018-01-15T23:36:19.097Z,99403.49
2018-01-15T23:38:46.765Z,99386.20
2018-01-15T23:41:14.332Z,99380.33
2018-01-15T23:43:41.883Z,99371.83
2018-01-15T23:46:09.473Z,99362.95
2018-01-15T23:48:37.032Z,99360.41
2018-01-15T23:51:04.900Z,99364.91
2018-01-15T23:53:32.521Z,99348.56
2018-01-15T23:56:00.062Z,99357.25
2018-01-15T23:58:27.667Z,99342.02
